Al Cenac — WDD5445 — position and weather

sailwx.info

Track history (hours):
 
Tides and Currents Weather Stations Pressure Air Temp Water Temp Dewpoint Dewpoint Depression Visibility Wind Speed Wind Dir Waves Ship Positions

Al Cenac

Owner: Caillou Island Towing Co, Inc., Houma, LA. More information available from US FCC via Universal Licensing System and Coast Guard Vessel Documentation Center.

Last reported at 2016-May-01 09:26 UTC. Time now 2016-May-01 17:31 UTC.
Position N 40°39' W 074°09'.

; draft 10 m.

Type: Tug. MMSI: 367158530.

Date/timePositionNaut miles runAvg speedWind from/ knotsBaromVisibWave heightAir tempDewpointWater temp
2016-May-01 09:26N 40°39' W 074°09'5 5.7
2016-May-01 08:33N 40°44' W 074°06'4 3.5
2016-May-01 07:34N 40°41' W 074°08'2 1.8
2016-May-01 06:32N 40°39' W 074°09'1 0.5
2016-May-01 03:33N 40°39' W 074°11'1 0.6
2016-May-01 02:33N 40°39' W 074°10'0 0.0
2016-May-01 01:33N 40°39' W 074°10'0 0.0
2016-May-01 00:33N 40°39' W 074°10'0 0.0
2016-Apr-30 23:33N 40°39' W 074°10'0 0.0
2016-Apr-30 22:34N 40°39' W 074°10'0 0.0
2016-Apr-30 21:33N 40°39' W 074°10'0 0.0
2016-Apr-30 19:25N 40°39' W 074°10'1 0.8
2016-Apr-30 18:20N 40°39' W 074°09'1 1.2
2016-Apr-30 17:34N 40°39' W 074°10'0 0.0
2016-Apr-30 16:34N 40°39' W 074°10'0 0.0
2016-Apr-30 15:33N 40°39' W 074°10'0 0.0
2016-Apr-30 14:34N 40°39' W 074°10'0 0.0
2016-Apr-30 13:33N 40°39' W 074°10'0 0.0
2016-Apr-30 12:34N 40°39' W 074°10'0 0.0
2016-Apr-30 11:34N 40°39' W 074°10'1 1.2
2016-Apr-30 10:33N 40°39' W 074°08'4 4.1
2016-Apr-30 09:33N 40°39' W 074°03'0 0.0
2016-Apr-30 08:33N 40°39' W 074°03'0 0.1
2016-Apr-30 07:33N 40°39' W 074°03'0 0.0
2016-Apr-30 06:33N 40°39' W 074°03'0 0.0
2016-Apr-30 05:33N 40°39' W 074°03'0 0.0
2016-Apr-30 04:33N 40°39' W 074°03'0 0.1
2016-Apr-30 03:33N 40°39' W 074°03'0 0.0
2016-Apr-30 02:33N 40°39' W 074°03'0 0.0
2016-Apr-30 01:33N 40°39' W 074°03'0 0.1
2016-Apr-30 00:33N 40°39' W 074°03'0 0.0
2016-Apr-29 23:33N 40°39' W 074°03'0 0.0
2016-Apr-29 22:33N 40°39' W 074°03'0 0.0
2016-Apr-29 21:33N 40°39' W 074°03'0 0.1
2016-Apr-29 20:33N 40°39' W 074°03'0 0.2
2016-Apr-29 19:33N 40°39' W 074°03'5 4.5
2016-Apr-29 18:33N 40°38' W 074°09'6 5.7
2016-Apr-29 17:31N 40°44' W 074°06'2 1.2
2016-Apr-29 15:34N 40°42' W 074°07'4 0.9
2016-Apr-29 11:30N 40°39' W 074°10'4 3.8
2016-Apr-29 10:33N 40°39' W 074°05'2 1.9
2016-Apr-29 09:33N 40°38' W 074°03'2 2.4
2016-Apr-29 08:32N 40°36' W 074°02'0 0.2
2016-Apr-29 07:20N 40°36' W 074°02'4 4.2
2016-Apr-29 06:23N 40°39' W 074°05'2 2.7
2016-Apr-29 05:29N 40°38' W 074°09'6 6.9
2016-Apr-29 04:34N 40°40' W 074°00'0 0.1
2016-Apr-29 03:29N 40°40' W 074°00'0 0.0
2016-Apr-29 02:31N 40°40' W 074°00'0 0.0
2016-Apr-29 01:30N 40°40' W 074°00'0 0.2
2016-Apr-29 00:34N 40°40' W 074°01'4 4.0
2016-Apr-28 23:28N 40°36' W 074°02'3 3.4
2016-Apr-28 22:31N 40°38' W 074°04'3 2.5
2016-Apr-28 21:27N 40°39' W 074°08'0 0.4
2016-Apr-28 20:31N 40°39' W 074°08'3 3.0
2016-Apr-28 19:31N 40°40' W 074°04'1 1.3
2016-Apr-28 18:32N 40°39' W 074°06'3 0.1
2016-Apr-27 15:33N 40°39' W 074°10'0 0.0
2016-Apr-27 14:32N 40°39' W 074°10'0 0.0
2016-Apr-27 12:18N 40°39' W 074°10'0 0.0
2016-Apr-27 11:33N 40°39' W 074°10'0 0.0
2016-Apr-27 10:33N 40°39' W 074°10'0 0.0
2016-Apr-27 09:33N 40°39' W 074°10'0 0.0
2016-Apr-27 08:33N 40°39' W 074°10'0 0.0
2016-Apr-27 07:33N 40°39' W 074°10'0 0.0
2016-Apr-27 06:33N 40°39' W 074°10'0 0.0
2016-Apr-27 05:33N 40°39' W 074°10'0 0.0
2016-Apr-27 04:33N 40°39' W 074°10'0 0.0
2016-Apr-27 03:33N 40°39' W 074°10'0 0.0
2016-Apr-27 02:33N 40°39' W 074°10'0 0.0
2016-Apr-27 01:33N 40°39' W 074°10'0 0.0
2016-Apr-27 00:33N 40°39' W 074°10'0 0.0
2016-Apr-26 23:33N 40°39' W 074°10'0 0.0
2016-Apr-26 22:33N 40°39' W 074°10'0 0.0
2016-Apr-26 21:33N 40°39' W 074°10'0 0.0
2016-Apr-26 20:33N 40°39' W 074°10'0 0.0
2016-Apr-26 19:33N 40°39' W 074°10'0 0.0
2016-Apr-26 18:33N 40°39' W 074°10'0 0.0
2016-Apr-26 17:29N 40°39' W 074°10'0 0.0
2016-Apr-26 16:33N 40°39' W 074°10'0 0.0
2016-Apr-26 15:33N 40°39' W 074°10'0 0.0
2016-Apr-26 14:33N 40°39' W 074°10'0 0.0
2016-Apr-26 13:33N 40°39' W 074°10'0 0.0
2016-Apr-26 12:33N 40°39' W 074°10'0 0.0
2016-Apr-26 11:30N 40°39' W 074°10'0 0.0
2016-Apr-26 10:33N 40°39' W 074°10'0 0.0
2016-Apr-26 09:31N 40°39' W 074°10'0 0.0
2016-Apr-26 08:33N 40°39' W 074°10'0 0.0
2016-Apr-26 07:33N 40°39' W 074°10'0 0.0
2016-Apr-26 06:08N 40°39' W 074°10'0 0.0
2016-Apr-26 05:33N 40°39' W 074°10'0 0.0
2016-Apr-26 04:27N 40°39' W 074°10'0 0.0
2016-Apr-26 03:32N 40°39' W 074°10'0 0.0
2016-Apr-26 02:33N 40°39' W 074°10'0 0.0
2016-Apr-26 01:22N 40°39' W 074°10'0 0.0
2016-Apr-26 00:33N 40°39' W 074°10'0 0.0
2016-Apr-25 23:33N 40°39' W 074°10'0 0.0
2016-Apr-25 22:33N 40°39' W 074°10'0 0.0
2016-Apr-25 21:33N 40°39' W 074°10'0 0.0
2016-Apr-25 20:33N 40°39' W 074°10'0 0.0
2016-Apr-25 19:33N 40°39' W 074°10'0 0.0
2016-Apr-25 18:19N 40°39' W 074°10'0 0.0
2016-Apr-25 17:33N 40°39' W 074°10'0 0.0
2016-Apr-25 16:33N 40°39' W 074°10'0 0.0
2016-Apr-25 15:33N 40°39' W 074°10'0 0.0
2016-Apr-25 14:33N 40°39' W 074°10'0 0.0
2016-Apr-25 13:33N 40°39' W 074°10'0 0.0
2016-Apr-25 12:33N 40°39' W 074°10'0 0.0
2016-Apr-25 11:33N 40°39' W 074°10'0 0.0
2016-Apr-25 10:33N 40°39' W 074°10'0 0.0
2016-Apr-25 09:33N 40°39' W 074°10'0 0.0
2016-Apr-25 08:33N 40°39' W 074°10'0 0.0
2016-Apr-25 07:33N 40°39' W 074°10'0 0.0
2016-Apr-25 06:33N 40°39' W 074°10'0 0.0
2016-Apr-25 05:33N 40°39' W 074°10'0 0.0
2016-Apr-25 04:33N 40°39' W 074°10'0 0.0
2016-Apr-25 03:33N 40°39' W 074°10'0 0.4
2016-Apr-25 02:31N 40°39' W 074°10'0 0.2
2016-Apr-25 00:33N 40°39' W 074°10'0 0.0
2016-Apr-24 23:13N 40°39' W 074°10'1 0.3
2016-Apr-24 19:33N 40°39' W 074°11'6 6.4
2016-Apr-24 18:33N 40°40' W 074°03'  
2016-Apr-22 11:19N 40°48' W 073°51'6 8.1
2016-Apr-22 10:34N 40°45' W 073°58'7 6.9
2016-Apr-22 09:33N 40°40' W 074°03'5 5.2
2016-Apr-22 08:33N 40°39' W 074°10'2 1.8
2016-Apr-22 07:21N 40°37' W 074°12'2 0.2
2016-Apr-21 21:29N 40°39' W 074°10'0 0.2
2016-Apr-21 19:23N 40°39' W 074°10'1 1.0
2016-Apr-21 18:15N 40°38' W 074°12'1 2.1
2016-Apr-21 17:33N 40°39' W 074°10'4 4.5
2016-Apr-21 16:33N 40°39' W 074°04'6 5.7
2016-Apr-21 15:33N 40°43' W 073°58'  
Track history (hours):
 
Tides and Currents Weather Stations Pressure Air Temp Water Temp Dewpoint Dewpoint Depression Visibility Wind Speed Wind Dir Waves Ship Positions

Al Cenac

Owner: Caillou Island Towing Co, Inc., Houma, LA. More information available from US FCC via Universal Licensing System and Coast Guard Vessel Documentation Center.

Last reported at 2016-May-01 09:26 UTC. Time now 2016-May-01 17:31 UTC.
Position N 40°39' W 074°09'.

; draft 10 m.

Type: Tug. MMSI: 367158530.

Date/timePositionNaut miles runAvg speedWind from/ knotsBaromVisibWave heightAir tempDewpointWater temp
2016-May-01 09:26N 40°39' W 074°09'5 5.7
2016-May-01 08:33N 40°44' W 074°06'4 3.5
2016-May-01 07:34N 40°41' W 074°08'2 1.8
2016-May-01 06:32N 40°39' W 074°09'1 0.5
2016-May-01 03:33N 40°39' W 074°11'1 0.6
2016-May-01 02:33N 40°39' W 074°10'0 0.0
2016-May-01 01:33N 40°39' W 074°10'0 0.0
2016-May-01 00:33N 40°39' W 074°10'0 0.0
2016-Apr-30 23:33N 40°39' W 074°10'0 0.0
2016-Apr-30 22:34N 40°39' W 074°10'0 0.0
2016-Apr-30 21:33N 40°39' W 074°10'0 0.0
2016-Apr-30 19:25N 40°39' W 074°10'1 0.8
2016-Apr-30 18:20N 40°39' W 074°09'1 1.2
2016-Apr-30 17:34N 40°39' W 074°10'0 0.0
2016-Apr-30 16:34N 40°39' W 074°10'0 0.0
2016-Apr-30 15:33N 40°39' W 074°10'0 0.0
2016-Apr-30 14:34N 40°39' W 074°10'0 0.0
2016-Apr-30 13:33N 40°39' W 074°10'0 0.0
2016-Apr-30 12:34N 40°39' W 074°10'0 0.0
2016-Apr-30 11:34N 40°39' W 074°10'1 1.2
2016-Apr-30 10:33N 40°39' W 074°08'4 4.1
2016-Apr-30 09:33N 40°39' W 074°03'0 0.0
2016-Apr-30 08:33N 40°39' W 074°03'0 0.1
2016-Apr-30 07:33N 40°39' W 074°03'0 0.0
2016-Apr-30 06:33N 40°39' W 074°03'0 0.0
2016-Apr-30 05:33N 40°39' W 074°03'0 0.0
2016-Apr-30 04:33N 40°39' W 074°03'0 0.1
2016-Apr-30 03:33N 40°39' W 074°03'0 0.0
2016-Apr-30 02:33N 40°39' W 074°03'0 0.0
2016-Apr-30 01:33N 40°39' W 074°03'0 0.1
2016-Apr-30 00:33N 40°39' W 074°03'0 0.0
2016-Apr-29 23:33N 40°39' W 074°03'0 0.0
2016-Apr-29 22:33N 40°39' W 074°03'0 0.0
2016-Apr-29 21:33N 40°39' W 074°03'0 0.1
2016-Apr-29 20:33N 40°39' W 074°03'0 0.2
2016-Apr-29 19:33N 40°39' W 074°03'5 4.5
2016-Apr-29 18:33N 40°38' W 074°09'6 5.7
2016-Apr-29 17:31N 40°44' W 074°06'2 1.2
2016-Apr-29 15:34N 40°42' W 074°07'4 0.9
2016-Apr-29 11:30N 40°39' W 074°10'4 3.8
2016-Apr-29 10:33N 40°39' W 074°05'2 1.9
2016-Apr-29 09:33N 40°38' W 074°03'2 2.4
2016-Apr-29 08:32N 40°36' W 074°02'0 0.2
2016-Apr-29 07:20N 40°36' W 074°02'4 4.2
2016-Apr-29 06:23N 40°39' W 074°05'2 2.7
2016-Apr-29 05:29N 40°38' W 074°09'6 6.9
2016-Apr-29 04:34N 40°40' W 074°00'0 0.1
2016-Apr-29 03:29N 40°40' W 074°00'0 0.0
2016-Apr-29 02:31N 40°40' W 074°00'0 0.0
2016-Apr-29 01:30N 40°40' W 074°00'0 0.2
2016-Apr-29 00:34N 40°40' W 074°01'4 4.0
2016-Apr-28 23:28N 40°36' W 074°02'3 3.4
2016-Apr-28 22:31N 40°38' W 074°04'3 2.5
2016-Apr-28 21:27N 40°39' W 074°08'0 0.4
2016-Apr-28 20:31N 40°39' W 074°08'3 3.0
2016-Apr-28 19:31N 40°40' W 074°04'1 1.3
2016-Apr-28 18:32N 40°39' W 074°06'3 0.1
2016-Apr-27 15:33N 40°39' W 074°10'0 0.0
2016-Apr-27 14:32N 40°39' W 074°10'0 0.0
2016-Apr-27 12:18N 40°39' W 074°10'0 0.0
2016-Apr-27 11:33N 40°39' W 074°10'0 0.0
2016-Apr-27 10:33N 40°39' W 074°10'0 0.0
2016-Apr-27 09:33N 40°39' W 074°10'0 0.0
2016-Apr-27 08:33N 40°39' W 074°10'0 0.0
2016-Apr-27 07:33N 40°39' W 074°10'0 0.0
2016-Apr-27 06:33N 40°39' W 074°10'0 0.0
2016-Apr-27 05:33N 40°39' W 074°10'0 0.0
2016-Apr-27 04:33N 40°39' W 074°10'0 0.0
2016-Apr-27 03:33N 40°39' W 074°10'0 0.0
2016-Apr-27 02:33N 40°39' W 074°10'0 0.0
2016-Apr-27 01:33N 40°39' W 074°10'0 0.0
2016-Apr-27 00:33N 40°39' W 074°10'0 0.0
2016-Apr-26 23:33N 40°39' W 074°10'0 0.0
2016-Apr-26 22:33N 40°39' W 074°10'0 0.0
2016-Apr-26 21:33N 40°39' W 074°10'0 0.0
2016-Apr-26 20:33N 40°39' W 074°10'0 0.0
2016-Apr-26 19:33N 40°39' W 074°10'0 0.0
2016-Apr-26 18:33N 40°39' W 074°10'0 0.0
2016-Apr-26 17:29N 40°39' W 074°10'0 0.0
2016-Apr-26 16:33N 40°39' W 074°10'0 0.0
2016-Apr-26 15:33N 40°39' W 074°10'0 0.0
2016-Apr-26 14:33N 40°39' W 074°10'0 0.0
2016-Apr-26 13:33N 40°39' W 074°10'0 0.0
2016-Apr-26 12:33N 40°39' W 074°10'0 0.0
2016-Apr-26 11:30N 40°39' W 074°10'0 0.0
2016-Apr-26 10:33N 40°39' W 074°10'0 0.0
2016-Apr-26 09:31N 40°39' W 074°10'0 0.0
2016-Apr-26 08:33N 40°39' W 074°10'0 0.0
2016-Apr-26 07:33N 40°39' W 074°10'0 0.0
2016-Apr-26 06:08N 40°39' W 074°10'0 0.0
2016-Apr-26 05:33N 40°39' W 074°10'0 0.0
2016-Apr-26 04:27N 40°39' W 074°10'0 0.0
2016-Apr-26 03:32N 40°39' W 074°10'0 0.0
2016-Apr-26 02:33N 40°39' W 074°10'0 0.0
2016-Apr-26 01:22N 40°39' W 074°10'0 0.0
2016-Apr-26 00:33N 40°39' W 074°10'0 0.0
2016-Apr-25 23:33N 40°39' W 074°10'0 0.0
2016-Apr-25 22:33N 40°39' W 074°10'0 0.0
2016-Apr-25 21:33N 40°39' W 074°10'0 0.0
2016-Apr-25 20:33N 40°39' W 074°10'0 0.0
2016-Apr-25 19:33N 40°39' W 074°10'0 0.0
2016-Apr-25 18:19N 40°39' W 074°10'0 0.0
2016-Apr-25 17:33N 40°39' W 074°10'0 0.0
2016-Apr-25 16:33N 40°39' W 074°10'0 0.0
2016-Apr-25 15:33N 40°39' W 074°10'0 0.0
2016-Apr-25 14:33N 40°39' W 074°10'0 0.0
2016-Apr-25 13:33N 40°39' W 074°10'0 0.0
2016-Apr-25 12:33N 40°39' W 074°10'0 0.0
2016-Apr-25 11:33N 40°39' W 074°10'0 0.0
2016-Apr-25 10:33N 40°39' W 074°10'0 0.0
2016-Apr-25 09:33N 40°39' W 074°10'0 0.0
2016-Apr-25 08:33N 40°39' W 074°10'0 0.0
2016-Apr-25 07:33N 40°39' W 074°10'0 0.0
2016-Apr-25 06:33N 40°39' W 074°10'0 0.0
2016-Apr-25 05:33N 40°39' W 074°10'0 0.0
2016-Apr-25 04:33N 40°39' W 074°10'0 0.0
2016-Apr-25 03:33N 40°39' W 074°10'0 0.4
2016-Apr-25 02:31N 40°39' W 074°10'0 0.2
2016-Apr-25 00:33N 40°39' W 074°10'0 0.0
2016-Apr-24 23:13N 40°39' W 074°10'1 0.3
2016-Apr-24 19:33N 40°39' W 074°11'6 6.4
2016-Apr-24 18:33N 40°40' W 074°03'  
2016-Apr-22 11:19N 40°48' W 073°51'6 8.1
2016-Apr-22 10:34N 40°45' W 073°58'7 6.9
2016-Apr-22 09:33N 40°40' W 074°03'5 5.2
2016-Apr-22 08:33N 40°39' W 074°10'2 1.8
2016-Apr-22 07:21N 40°37' W 074°12'2 0.2
2016-Apr-21 21:29N 40°39' W 074°10'0 0.2
2016-Apr-21 19:23N 40°39' W 074°10'1 1.0
2016-Apr-21 18:15N 40°38' W 074°12'1 2.1
2016-Apr-21 17:33N 40°39' W 074°10'4 4.5
2016-Apr-21 16:33N 40°39' W 074°04'6 5.7
2016-Apr-21 15:33N 40°43' W 073°58'  

Dump ship's entire track history